Depue, Illinois
Current Conditions -  °F | °C
As of 6:15 AM on Friday 31 Oct 2014 (Local Time) from KVYS Reporting Station
Overcast Overcast  
Wind Chill: 25°   Ceiling: 6000
Heat Index: 37°   Visibility: 10mi
Dew Point: 24°   Wind: 29mph
Humidity: 60%   Direction: 330°NNW
Pressure: 30.15"   Gusts: 35mph
Location:  41.32°N, 89.31°W
Report Text: KVYS 311115Z AUTO 33025G30KT 10SM OVC060 03/M04 A3015 RMK AO2 T00301042
Loading
Personal Weather Stations






























Interactive Weather Map
Tropical Storm Tracking
New forecast layout! Learn more

10-Day Weather Forecast

Advertisements
Track Severe Weather on mobile